Aeroporto :
LOGIN :

Iscrizione | Disclaimer

   EN    FR    IT 

 










Sommario :    VFR   VFR Marginale   IFR   IFR Intensivo   IFR Molto Intensivo
Visibilità : 
Base nubi : 
>= 8 km
>= 3000ft
5 / 8 km
1000 / 3000 ft
1500m / 5 km
500 / 1000 ft
800 / 1500m
200 / 500 ft
< 800m
< 200 ft
Simboli :   Temporali  Nebbia  Neve Forte  Precipitazioni Forti  Vento > 20 kt
SIGMETs :   Varie  Temporali  Ghiacco  Turbolenza  Onda orograficha  Ceneri Vulcaniche






- Altitudine del aeroporto : 233 ft
- Codice IATA : REU


LERS - Reus Tarragona

ULTIMO METAR :
  • 250030Z AUTO 36004KT CAVOK 08/04 Q1019

METARs OBSOLETI :
  • 250000Z AUTO 02005KT CAVOK 07/04 Q1019
  • 242330Z AUTO 03003KT 360V070 CAVOK 07/05 Q1020
  • 242300Z AUTO 02005KT CAVOK 08/05 Q1020
  • 242230Z AUTO 02005KT CAVOK 07/05 Q1020
  • 242200Z AUTO 03005KT CAVOK 08/06 Q1020

TAF TAF LERS
Valido dal 24 a 21 ore il 25 a 21 ore UTC


242000Z 2421/2521 02004KT CAVOK TX19/2513Z TN05/2506Z
BECMG 2510/2512 28018G30KT



MetMap, La meteo Aeronautica in un colpo d'occhio ! - Copyright ORBIFLY Dicembre 2007 - Disclaimer

ORBIFLY MET'MAP TEAM :

Programmazione e sviluppo : Alexandra Zaïnal
Concezione : Baudouin d'Aumeries
Aiuto per la programmazione : Marc-Olivier Méhu
Supporto tecnico e logistico : Manuel Goepfert
Aiuto per la traduzione : Arnaldo La Scala

Contatto : metmap@orbifly.com




FONTI E CREDITI :

   NOAA